Pixley, California
Current Conditions -  °F | °C
As of 8:15 PM on Thursday 27 Nov 2014 (Local Time) from KPTV Reporting Station
Clear Clear  
Wind Chill: 52°   Ceiling: Unl
Heat Index: 52°   Visibility: 5mi
Dew Point: 43°   Wind: 7mph
Humidity: 71%   Direction: 110°ESE
Pressure: 30.09"   Gusts: NA
Location:  35.97°N, 119.29°W
Report Text: KPTV 280415Z AUTO 11006KT 5SM CLR 11/06 A3009 RMK AO1
Loading
Personal Weather Stations






























Interactive Weather Map New forecast layout! Learn more

10-Day Weather Forecast

Advertisements
Track Severe Weather on mobile